Spencer, South Dakota
Current Conditions -  °F | °C
As of 7:53 AM on Friday 28 Nov 2014 (Local Time) from KMHE Reporting Station
Clear Clear  
Wind Chill: 21°   Ceiling: Unl
Heat Index: 21°   Visibility: 10mi
Dew Point: 18°   Wind: 3mph
Humidity: 88%   Direction: 90°E
Pressure: 29.8"   Gusts: NA
Location:  43.73°N, 97.59°W
Report Text: KMHE 281353Z AUTO 09003KT 10SM CLR M06/M08 A2980 RMK AO2 SLP110 T10611078 $
Loading
Personal Weather Stations






























Interactive Weather Map New forecast layout! Learn more

10-Day Weather Forecast

Advertisements
Track Severe Weather on mobile